createdAt,value
2019-06-27T00:03:19.383Z,3.07
2019-06-27T00:08:25.296Z,3.47
2019-06-27T00:13:31.171Z,3.20
2019-06-27T00:18:37.109Z,2.80
2019-06-27T00:23:42.998Z,3.23
2019-06-27T00:28:48.897Z,3.00
2019-06-27T00:33:54.812Z,3.03
2019-06-27T00:39:00.748Z,3.00
2019-06-27T00:44:06.630Z,3.00
2019-06-27T00:49:12.486Z,3.10
2019-06-27T00:54:18.293Z,3.10
2019-06-27T00:59:24.313Z,2.93
2019-06-27T01:04:30.160Z,3.10
2019-06-27T01:09:36.054Z,3.30
2019-06-27T01:14:41.981Z,3.00
2019-06-27T01:19:58.157Z,3.27
2019-06-27T01:25:14.495Z,3.17
2019-06-27T01:30:20.888Z,3.30
2019-06-27T01:35:29.853Z,3.23
2019-06-27T01:40:48.201Z,3.30
2019-06-27T01:45:57.437Z,3.40
2019-06-27T01:51:03.337Z,3.07
2019-06-27T01:56:10.186Z,3.13
2019-06-27T02:01:16.327Z,3.30
2019-06-27T02:06:22.249Z,3.10
2019-06-27T02:11:28.165Z,3.23
2019-06-27T02:16:34.149Z,3.27
2019-06-27T02:21:40.768Z,2.67
2019-06-27T02:26:46.651Z,2.90
2019-06-27T02:31:52.524Z,2.83
2019-06-27T02:36:58.399Z,3.07
2019-06-27T02:42:04.430Z,3.23
2019-06-27T02:47:10.413Z,3.30
2019-06-27T02:52:16.435Z,2.73
2019-06-27T02:57:22.385Z,3.13
2019-06-27T03:02:28.263Z,3.20
2019-06-27T03:07:34.145Z,2.90
2019-06-27T03:12:40.224Z,3.00
2019-06-27T03:17:46.255Z,3.00
2019-06-27T03:22:52.338Z,3.00
2019-06-27T03:27:58.219Z,2.87
2019-06-27T03:33:04.212Z,3.13
2019-06-27T03:38:10.071Z,2.90
2019-06-27T03:43:15.958Z,2.60
2019-06-27T03:48:21.867Z,3.20
2019-06-27T03:53:27.833Z,2.90
2019-06-27T03:58:33.743Z,3.20
2019-06-27T04:03:42.873Z,2.70
2019-06-27T04:08:47.212Z,2.93
2019-06-27T04:13:53.136Z,3.00
2019-06-27T04:18:59.512Z,2.90
2019-06-27T04:24:05.627Z,2.57
2019-06-27T04:29:31.495Z,3.20
2019-06-27T04:34:20.175Z,2.63
2019-06-27T04:39:26.728Z,2.90
2019-06-27T04:44:32.764Z,3.60
2019-06-27T04:49:38.687Z,4.30
2019-06-27T04:54:44.523Z,3.90
2019-06-27T04:59:53.956Z,4.17
2019-06-27T05:04:57.913Z,3.93
2019-06-27T05:10:03.829Z,3.27
2019-06-27T05:15:09.848Z,4.20
2019-06-27T05:20:15.773Z,7.80
2019-06-27T05:25:21.872Z,4.90
2019-06-27T05:30:27.738Z,4.03
2019-06-27T05:35:33.625Z,4.33
2019-06-27T05:40:39.836Z,4.90
2019-06-27T05:45:45.949Z,4.60
2019-06-27T05:50:51.895Z,5.73
2019-06-27T05:55:57.777Z,5.23
2019-06-27T06:01:03.756Z,4.80
2019-06-27T06:06:09.791Z,5.03
2019-06-27T06:11:15.983Z,5.07
2019-06-27T06:16:21.856Z,5.50
2019-06-27T06:21:27.784Z,4.47
2019-06-27T06:26:33.707Z,5.93
2019-06-27T06:31:39.907Z,6.37
2019-06-27T06:36:46.015Z,5.47
2019-06-27T06:41:51.949Z,5.57
2019-06-27T06:46:57.743Z,6.20
2019-06-27T06:52:03.700Z,7.07
2019-06-27T06:57:09.721Z,5.87
2019-06-27T07:02:15.764Z,4.20
2019-06-27T07:07:21.694Z,4.97
2019-06-27T07:12:27.572Z,5.50
2019-06-27T07:17:33.453Z,4.43
2019-06-27T07:22:39.375Z,4.53
2019-06-27T07:27:45.450Z,4.27
2019-06-27T07:32:51.896Z,3.90
2019-06-27T07:37:57.810Z,5.80
2019-06-27T07:43:03.723Z,4.60
2019-06-27T07:48:09.946Z,3.93
2019-06-27T07:53:15.771Z,4.00
2019-06-27T07:58:21.689Z,4.20
2019-06-27T08:03:27.588Z,3.73
2019-06-27T08:08:33.403Z,3.33
2019-06-27T08:13:39.191Z,4.20
2019-06-27T08:18:44.997Z,3.30
2019-06-27T08:23:50.826Z,3.90
2019-06-27T08:28:56.764Z,4.43
2019-06-27T08:34:02.548Z,4.80
2019-06-27T08:39:08.374Z,6.30
2019-06-27T08:44:14.318Z,5.40
2019-06-27T08:49:20.174Z,5.63
2019-06-27T08:54:26.000Z,5.70
2019-06-27T08:59:31.796Z,5.33
2019-06-27T09:04:37.631Z,4.20
2019-06-27T09:09:44.184Z,4.23
2019-06-27T09:14:50.008Z,5.07
2019-06-27T09:19:56.010Z,5.33
2019-06-27T09:25:01.894Z,4.60
2019-06-27T09:30:08.039Z,4.77
2019-06-27T09:35:13.989Z,4.90
2019-06-27T09:40:20.493Z,5.10
2019-06-27T09:45:28.155Z,8.07
2019-06-27T09:50:34.022Z,5.47
2019-06-27T09:55:39.803Z,5.73
2019-06-27T10:00:45.609Z,6.07
2019-06-27T10:05:51.426Z,6.10
2019-06-27T10:10:57.255Z,6.83
2019-06-27T10:16:03.046Z,10.13
2019-06-27T10:21:08.845Z,6.10
2019-06-27T10:26:14.679Z,5.90
2019-06-27T10:31:20.535Z,6.17
2019-06-27T10:36:26.362Z,7.00
2019-06-27T10:41:32.225Z,7.30
2019-06-27T10:46:38.011Z,6.90
2019-06-27T10:51:43.929Z,6.17
2019-06-27T10:56:49.739Z,6.97
2019-06-27T11:01:55.539Z,7.13
2019-06-27T11:07:01.385Z,6.23
2019-06-27T11:12:07.167Z,6.03
2019-06-27T11:17:12.940Z,6.40
2019-06-27T11:22:18.767Z,5.77
2019-06-27T11:27:27.293Z,6.58
2019-06-27T11:32:32.060Z,5.92
2019-06-27T11:37:37.861Z,6.58
2019-06-27T11:42:43.694Z,7.40
2019-06-27T11:47:49.638Z,6.33
2019-06-27T11:52:55.811Z,9.90
2019-06-27T11:58:01.593Z,6.80
2019-06-27T12:03:07.464Z,7.05
2019-06-27T12:08:13.237Z,6.17
2019-06-27T12:13:19.096Z,6.95
2019-06-27T12:18:24.897Z,6.35
2019-06-27T12:23:30.740Z,6.20
2019-06-27T12:28:36.528Z,6.33
2019-06-27T12:33:42.375Z,6.33
2019-06-27T12:38:48.195Z,6.55
2019-06-27T12:43:53.969Z,15.10
2019-06-27T12:48:59.799Z,6.37
2019-06-27T12:54:05.614Z,5.20
2019-06-27T12:59:11.404Z,5.85
2019-06-27T13:04:23.450Z,6.15
2019-06-27T13:09:24.741Z,5.58
2019-06-27T13:14:30.496Z,6.33
2019-06-27T13:19:39.607Z,5.80
2019-06-27T13:24:44.076Z,5.33
2019-06-27T13:29:49.856Z,5.72
2019-06-27T13:34:56.893Z,6.50
2019-06-27T13:40:04.791Z,6.10
2019-06-27T13:45:10.341Z,6.17
2019-06-27T13:50:16.255Z,5.58
2019-06-27T13:55:24.124Z,7.12
2019-06-27T14:00:38.108Z,6.30
2019-06-27T14:05:44.116Z,5.87
2019-06-27T14:10:49.949Z,5.15
2019-06-27T14:15:55.741Z,6.17
2019-06-27T14:21:01.543Z,5.12
2019-06-27T14:26:07.389Z,5.10
2019-06-27T14:31:13.194Z,4.90
2019-06-27T14:36:19.214Z,5.78
2019-06-27T14:41:25.015Z,5.55
2019-06-27T14:46:30.845Z,6.20
2019-06-27T14:51:36.658Z,5.58
2019-06-27T14:56:42.439Z,5.50
2019-06-27T15:01:48.294Z,6.45
2019-06-27T15:06:54.065Z,5.80
2019-06-27T15:11:59.836Z,6.67
2019-06-27T15:17:05.653Z,5.80
2019-06-27T15:22:11.503Z,5.37
2019-06-27T15:27:17.379Z,6.33
2019-06-27T15:32:23.650Z,6.03
2019-06-27T15:37:29.614Z,6.00
2019-06-27T15:42:35.414Z,7.00
2019-06-27T15:47:41.246Z,6.55
2019-06-27T15:52:47.042Z,6.25
2019-06-27T15:57:52.842Z,7.90
2019-06-27T16:02:58.711Z,6.17
2019-06-27T16:08:04.659Z,6.72
2019-06-27T16:13:10.522Z,8.18
2019-06-27T16:18:16.358Z,6.08
2019-06-27T16:23:22.117Z,6.35
2019-06-27T16:28:27.936Z,6.87
2019-06-27T16:33:33.753Z,6.28
2019-06-27T16:38:39.568Z,7.05
2019-06-27T16:43:45.358Z,7.53
2019-06-27T16:48:51.140Z,6.60
2019-06-27T16:53:56.951Z,5.85
2019-06-27T16:59:02.848Z,7.25
2019-06-27T17:04:08.665Z,7.80
2019-06-27T17:09:14.462Z,6.80
2019-06-27T17:14:20.263Z,6.15
2019-06-27T17:19:26.065Z,6.58
2019-06-27T17:24:31.934Z,6.83
2019-06-27T17:29:37.703Z,7.25
2019-06-27T17:34:43.536Z,6.80
2019-06-27T17:39:49.446Z,6.00
2019-06-27T17:44:55.272Z,6.75
2019-06-27T17:50:01.052Z,8.58
2019-06-27T17:55:07.521Z,7.22
2019-06-27T18:00:14.368Z,7.33
2019-06-27T18:05:20.180Z,8.10
2019-06-27T18:10:25.993Z,6.47
2019-06-27T18:15:31.820Z,6.33
2019-06-27T18:20:37.954Z,6.03
2019-06-27T18:25:43.828Z,6.77
2019-06-27T18:30:49.647Z,6.73
2019-06-27T18:35:55.427Z,6.75
2019-06-27T18:41:02.481Z,6.30
2019-06-27T18:46:08.344Z,6.60
2019-06-27T18:51:14.172Z,8.70
2019-06-27T18:56:20.007Z,8.00
2019-06-27T19:01:25.843Z,7.10
2019-06-27T19:06:31.624Z,5.77
2019-06-27T19:11:37.753Z,6.07
2019-06-27T19:16:43.532Z,6.37
2019-06-27T19:21:56.702Z,7.60
2019-06-27T19:27:02.574Z,7.33
2019-06-27T19:32:08.361Z,6.43
2019-06-27T19:37:14.174Z,6.67
2019-06-27T19:42:20.117Z,7.80
2019-06-27T19:47:25.927Z,9.93
2019-06-27T19:52:32.039Z,8.00
2019-06-27T19:57:39.409Z,7.83
2019-06-27T20:02:45.231Z,7.57
2019-06-27T20:07:51.044Z,20.70
2019-06-27T20:12:56.836Z,7.00
2019-06-27T20:18:02.619Z,7.20
2019-06-27T20:23:08.468Z,7.97
2019-06-27T20:28:14.263Z,6.43
2019-06-27T20:33:20.076Z,5.33
2019-06-27T20:38:35.041Z,5.70
2019-06-27T20:43:36.918Z,4.90
2019-06-27T20:48:42.800Z,5.13
2019-06-27T20:53:48.600Z,4.17
2019-06-27T20:58:54.413Z,4.17
2019-06-27T21:04:00.412Z,4.77
2019-06-27T21:09:06.449Z,4.37
2019-06-27T21:14:12.244Z,3.60
2019-06-27T21:19:18.583Z,3.63
2019-06-27T21:24:24.371Z,6.30
2019-06-27T21:29:30.146Z,7.43
2019-06-27T21:34:36.042Z,3.67
2019-06-27T21:39:41.940Z,3.57
2019-06-27T21:44:47.975Z,4.17
2019-06-27T21:49:53.804Z,3.97
2019-06-27T21:54:59.607Z,4.10
2019-06-27T22:00:06.517Z,5.33
2019-06-27T22:05:12.754Z,4.07
2019-06-27T22:10:18.678Z,10.70
2019-06-27T22:15:24.476Z,5.00
2019-06-27T22:20:30.255Z,4.50
2019-06-27T22:25:40.688Z,5.20
2019-06-27T22:30:43.477Z,5.00
2019-06-27T22:35:49.285Z,4.93
2019-06-27T22:41:12.521Z,4.57
2019-06-27T22:46:36.148Z,4.80
2019-06-27T22:52:10.056Z,4.63
2019-06-27T22:57:15.856Z,4.90
2019-06-27T23:02:21.656Z,6.00
2019-06-27T23:07:27.437Z,5.17
2019-06-27T23:12:33.271Z,3.97
2019-06-27T23:17:39.105Z,4.30
2019-06-27T23:22:44.889Z,5.10
2019-06-27T23:27:50.848Z,5.43
2019-06-27T23:32:57.038Z,5.37
2019-06-27T23:38:02.811Z,4.70
2019-06-27T23:43:08.632Z,4.63
2019-06-27T23:48:14.449Z,4.70
2019-06-27T23:53:20.247Z,7.23
2019-06-27T23:58:26.034Z,5.03
